Terminal Aerodrome Forecast
Issued by NWS

Home | Current Version | Previous Version | Text Only | Print | Product List | Glossary Off
Versions: 1 2 3 4 5 6 7 8 9 10 11 12 13 14 15 16 17 18 19 20 21 22 23 24 25 26 27 28

000
FTUS43 KLOT 222100 AAA
TAFDPA
TAF AMD
KDPA 222100Z 2221/2318 20013G20KT P6SM VCSH SCT030 BKN040 BKN250
     FM230200 21012KT P6SM BKN025 BKN050
     FM230600 23012KT P6SM -SHRA SCT010 BKN020 BKN050
      TEMPO 2306/2309 4SM -TSRA BKN015CB BKN050
     FM231100 35011KT P6SM BKN015 BKN050
     FM231400 33010KT P6SM SCT020 BKN035=

USA.gov is the U.S. government's official web portal to all federal, state and local government web resources and services.